Time;durP1;ratioP1;P1;durP2;ratioP2;P2;SDS_P1;SDS_P2;PMS_P1;PMS_P2;Temp;Humidity;BMP_temperature;BMP_pressure;BME280_temperature;BME280_humidity;BME280_pressure;Samples;Min_cycle;Max_cycle;Signal;HPM_P1;HPM_P2
2021/06/03 00:01:53;;;;;;;4.00;3.30;;;14.30;58.60;;;13.95;41.76;95440.97;4815083;29;20263;-82
2021/06/03 00:04:20;;;;;;;4.03;3.63;;;14.30;58.60;;;13.96;41.98;95448.66;4821566;29;20274;-81
2021/06/03 00:06:48;;;;;;;5.07;3.30;;;14.30;58.70;;;13.95;41.80;95446.25;4728694;29;23966;-81
2021/06/03 00:09:27;;;;;;;5.97;3.65;;;14.30;58.60;;;13.95;41.79;95441.75;5133982;27;20656;-81
2021/06/03 00:11:55;;;;;;;4.22;3.22;;;14.20;58.60;;;13.88;41.85;95439.13;5083202;28;20194;-81
2021/06/03 00:14:22;;;;;;;5.57;3.28;;;14.30;58.70;;;13.89;41.87;95443.38;5092397;28;20566;-82
2021/06/03 00:16:49;;;;;;;5.30;3.25;;;14.20;58.50;;;13.84;41.83;95442.34;5031667;28;20606;-81
2021/06/03 00:19:17;;;;;;;6.03;3.55;;;14.20;58.50;;;13.83;41.84;95453.91;5030317;28;20232;-81
2021/06/03 00:21:44;;;;;;;4.97;3.42;;;14.10;58.40;;;13.75;42.06;95453.06;4949052;28;20217;-81
2021/06/03 00:24:15;;;;;;;5.13;3.42;;;14.10;58.40;;;13.73;42.21;95457.75;4841515;29;20321;-81
2021/06/03 00:26:42;;;;;;;5.60;3.67;;;14.10;58.40;;;13.65;42.09;95449.22;4622937;30;20260;-81
2021/06/03 00:30:53;;;;;;;3.90;3.30;;;14.20;58.50;;;13.59;41.90;95450.81;5150365;27;20963;-81
2021/06/03 00:33:20;;;;;;;5.13;3.72;;;14.00;58.30;;;13.55;41.95;95446.91;5107817;28;20220;-81
2021/06/03 00:35:47;;;;;;;4.63;3.72;;;14.00;58.30;;;13.49;42.14;95443.25;5073963;28;20221;-81
2021/06/03 00:38:14;;;;;;;4.50;3.53;;;13.90;58.30;;;13.49;42.68;95451.16;5010209;28;20223;-81
2021/06/03 00:40:41;;;;;;;5.18;3.80;;;14.00;58.30;;;13.47;42.60;95457.66;5002455;28;20284;-82
2021/06/03 00:43:08;;;;;;;4.53;3.63;;;13.80;58.10;;;13.44;42.59;95461.50;4951700;28;20234;-82
2021/06/03 00:45:38;;;;;;;4.45;3.72;;;13.90;58.20;;;13.39;42.84;95455.97;4858019;29;20212;-81
2021/06/03 00:48:08;;;;;;;3.88;3.47;;;13.80;59.20;;;13.35;42.38;95447.63;4815183;29;20294;-81
2021/06/03 00:52:20;;;;;;;6.55;3.78;;;13.80;59.20;;;13.30;42.73;95457.94;5149883;27;20634;-81
2021/06/03 00:54:47;;;;;;;4.93;3.92;;;13.80;58.60;;;13.26;42.66;95459.34;5086872;28;20217;-80
2021/06/03 00:57:15;;;;;;;6.10;3.92;;;13.70;58.90;;;13.21;42.82;95464.38;5062134;28;20215;-81
2021/06/03 00:59:42;;;;;;;4.50;3.72;;;13.60;59.00;;;13.12;43.13;95461.06;5038669;28;20239;-81
2021/06/03 01:02:09;;;;;;;4.05;3.60;;;13.60;59.10;;;13.04;42.87;95458.63;4987412;28;20644;-80
2021/06/03 01:04:38;;;;;;;4.40;4.00;;;13.50;59.00;;;13.01;43.08;95457.19;4909536;29;20316;-81
2021/06/03 01:07:05;;;;;;;3.30;3.00;;;13.50;59.10;;;12.94;42.93;95457.13;4781098;29;20215;-81
2021/06/03 01:10:20;;;;;;;4.13;3.70;;;13.50;59.40;;;12.81;43.29;95452.56;4539859;30;20547;-81
2021/06/03 01:13:38;;;;;;;5.95;3.40;;;13.40;60.30;;;12.78;43.26;95457.41;5134026;27;20343;-82
2021/06/03 01:16:07;;;;;;;5.10;3.22;;;13.30;60.40;;;12.71;43.21;95464.47;5075603;28;20195;-81
2021/06/03 01:18:38;;;;;;;3.95;3.53;;;13.30;59.60;;;12.66;43.63;95465.03;5036948;28;20314;-80
2021/06/03 01:21:34;;;;;;;4.35;3.90;;;13.20;60.00;;;12.57;43.87;95460.91;5002459;28;20302;-80
2021/06/03 01:24:29;;;;;;;5.78;4.03;;;13.10;60.10;;;12.49;43.88;95461.88;4901234;29;20240;-81
2021/06/03 01:27:11;;;;;;;5.28;3.72;;;13.10;60.60;;;12.51;43.83;95461.69;4701635;30;20247;-81
2021/06/03 01:30:03;;;;;;;7.28;4.03;;;13.00;60.60;;;12.44;43.97;95462.44;4627998;30;20248;-80
2021/06/03 01:34:55;;;;;;;5.82;4.07;;;13.00;60.90;;;12.38;44.20;95470.25;5127164;27;20440;-80
2021/06/03 01:37:22;;;;;;;4.30;3.85;;;12.90;60.30;;;12.36;44.18;95462.56;5049684;28;20202;-81
2021/06/03 01:39:51;;;;;;;6.25;4.22;;;12.90;60.50;;;12.36;44.42;95474.91;5064904;28;20667;-81
2021/06/03 01:42:19;;;;;;;5.22;4.40;;;12.90;60.70;;;12.31;44.86;95470.22;5018313;28;20220;-81
2021/06/03 01:44:47;;;;;;;5.10;4.35;;;12.80;60.80;;;12.31;44.45;95472.84;4912515;28;20708;-80
2021/06/03 01:47:15;;;;;;;6.13;4.20;;;12.80;60.90;;;12.32;44.70;95470.00;4818162;29;20568;-83
2021/06/03 01:49:43;;;;;;;4.63;4.15;;;12.70;60.80;;;12.31;44.83;95472.84;4822201;29;20323;-81
2021/06/03 01:52:11;;;;;;;5.93;3.97;;;12.80;61.10;;;12.28;44.81;95468.78;4616737;30;20227;-81
2021/06/03 01:56:22;;;;;;;4.95;4.20;;;12.70;61.00;;;12.26;44.65;95472.59;5131031;27;20568;-81
2021/06/03 01:58:49;;;;;;;6.00;4.30;;;12.70;60.90;;;12.25;45.09;95470.97;5087599;28;20224;-81
2021/06/03 02:01:19;;;;;;;5.93;4.25;;;12.70;61.10;;;12.23;45.06;95475.59;5064604;28;20214;-80
2021/06/03 02:03:47;;;;;;;4.82;4.20;;;12.70;61.30;;;12.22;45.02;95476.59;5059056;28;20255;-81
2021/06/03 02:06:14;;;;;;;7.07;4.57;;;12.60;61.20;;;12.18;45.15;95468.25;5024288;28;20284;-80
2021/06/03 02:08:41;;;;;;;4.93;4.30;;;12.60;61.40;;;12.21;45.26;95477.63;5006620;28;20237;-81
2021/06/03 02:11:13;;;;;;;4.95;4.45;;;12.70;61.50;;;12.18;45.05;95465.63;4858709;29;20280;-81
2021/06/03 02:13:50;;;;;;;7.38;4.93;;;12.60;61.50;;;12.12;45.64;95461.97;4745979;30;20388;-80
2021/06/03 02:18:20;;;;;;;4.63;3.90;;;12.60;62.50;;;12.13;45.30;95465.38;5142831;27;21009;-81
2021/06/03 02:20:48;;;;;;;6.85;4.40;;;12.60;61.40;;;12.13;45.25;95465.38;5067937;28;20540;-80
2021/06/03 02:23:21;;;;;;;5.88;4.50;;;12.50;61.50;;;12.10;45.42;95465.78;5048073;28;20231;-80
2021/06/03 02:25:51;;;;;;;5.07;4.50;;;12.50;61.70;;;12.06;45.52;95460.06;4947726;28;20218;-82
2021/06/03 02:28:18;;;;;;;7.32;4.90;;;12.50;61.70;;;12.08;45.85;95467.78;4885233;29;20233;-81
2021/06/03 02:30:47;;;;;;;8.40;4.90;;;12.50;61.80;;;12.07;45.85;95468.78;4822470;29;20228;-81
2021/06/03 02:33:16;;;;;;;7.10;4.57;;;12.60;61.90;;;12.04;45.81;95461.28;4777046;29;20238;-80
2021/06/03 02:35:45;;;;;;;5.35;4.68;;;12.50;61.90;;;12.06;45.66;95467.13;4620498;30;20232;-80
2021/06/03 02:38:31;;;;;;;5.65;5.05;;;12.40;62.20;;;12.03;46.04;95465.69;5133101;27;20316;-80
2021/06/03 02:41:07;;;;;;;7.38;5.68;;;12.40;62.80;;;12.04;46.08;95472.59;5082280;28;20225;-79
2021/06/03 02:43:42;;;;;;;5.40;4.90;;;12.50;62.40;;;12.05;46.28;95473.38;5041046;28;20574;-80
2021/06/03 02:46:09;;;;;;;4.97;4.47;;;12.40;62.30;;;12.04;46.10;95474.41;4978384;28;20636;-79
2021/06/03 02:48:36;;;;;;;6.40;4.50;;;12.40;63.00;;;12.04;46.43;95479.69;4874124;29;20239;-80
2021/06/03 02:51:04;;;;;;;6.82;5.40;;;12.40;62.10;;;12.00;46.17;95480.03;4822373;29;20278;-80
2021/06/03 02:53:31;;;;;;;6.35;5.43;;;12.40;62.40;;;12.03;46.21;95480.66;4645694;30;20780;-80
2021/06/03 02:55:59;;;;;;;5.70;5.15;;;12.40;62.40;;;11.98;46.49;95483.84;4415739;31;20275;-81
2021/06/03 03:01:04;;;;;;;6.35;5.53;;;12.40;62.50;;;12.04;46.52;95490.19;5132286;27;20589;-80
2021/06/03 03:03:31;;;;;;;6.63;5.55;;;12.40;62.70;;;12.04;46.40;95496.25;5079357;28;20222;-79
2021/06/03 03:05:59;;;;;;;6.22;5.25;;;12.40;62.70;;;12.06;46.93;95490.81;5088653;28;20250;-79
2021/06/03 03:08:28;;;;;;;6.25;4.95;;;12.40;62.70;;;12.04;46.56;95490.19;5038185;28;20223;-79
2021/06/03 03:11:00;;;;;;;7.10;5.20;;;12.40;62.70;;;12.07;46.82;95490.63;4989623;28;20209;-79
2021/06/03 03:13:34;;;;;;;7.35;5.60;;;12.40;62.80;;;12.07;46.86;95487.19;4854220;29;20344;-80
2021/06/03 03:16:02;;;;;;;6.55;5.60;;;12.40;62.90;;;12.09;47.09;95490.44;4812090;29;20299;-80
2021/06/03 03:18:29;;;;;;;7.85;5.55;;;12.40;62.90;;;12.11;46.54;95494.50;4637037;30;20369;-80
2021/06/03 03:21:07;;;;;;;6.95;5.45;;;12.50;63.10;;;12.14;46.68;95496.75;5140118;27;20307;-81
2021/06/03 03:23:35;;;;;;;8.35;5.53;;;12.40;63.00;;;12.17;46.88;95498.22;5088346;28;20213;-79
2021/06/03 03:26:03;;;;;;;7.60;5.78;;;12.40;63.10;;;12.17;46.94;95499.00;5075071;28;20210;-81
2021/06/03 03:28:30;;;;;;;6.85;5.45;;;12.50;63.30;;;12.23;46.90;95504.53;5022190;28;20225;-79
2021/06/03 03:30:58;;;;;;;7.22;5.95;;;12.40;63.10;;;12.23;47.37;95505.34;4894974;29;20205;-81
2021/06/03 03:33:29;;;;;;;7.97;6.20;;;12.50;63.40;;;12.28;47.36;95507.41;4807126;29;20295;-80
2021/06/03 03:35:56;;;;;;;8.02;5.75;;;12.50;63.40;;;12.33;47.02;95511.09;4676748;30;20230;-83
2021/06/03 03:38:33;;;;;;;7.03;6.03;;;12.50;63.50;;;12.40;47.54;95516.44;4384730;32;20605;-80
2021/06/03 03:43:03;;;;;;;5.55;4.88;;;12.60;63.60;;;12.46;46.85;95517.50;5142256;27;20785;-79
2021/06/03 03:45:32;;;;;;;5.70;5.10;;;12.80;63.60;;;12.51;46.78;95512.47;5079532;28;20197;-81
2021/06/03 03:48:02;;;;;;;6.05;5.43;;;12.70;63.60;;;12.60;47.27;95513.97;5117719;28;20224;-80
2021/06/03 03:50:32;;;;;;;6.45;5.53;;;12.70;63.70;;;12.68;47.19;95520.91;5059824;28;20615;-81
2021/06/03 03:53:00;;;;;;;9.95;6.13;;;12.80;63.90;;;12.76;47.20;95523.41;5021937;28;20246;-81
2021/06/03 03:55:27;;;;;;;6.35;5.57;;;12.80;63.90;;;12.82;47.46;95525.28;5002348;28;20205;-80
2021/06/03 03:57:59;;;;;;;8.77;5.85;;;12.80;63.90;;;12.92;47.73;95522.31;4995515;28;20764;-80
2021/06/03 04:00:33;;;;;;;6.85;5.93;;;12.90;64.20;;;13.02;47.75;95529.88;4791572;28;20375;-81
2021/06/03 04:04:29;;;;;;;8.98;6.07;;;13.00;64.80;;;13.16;47.37;95533.44;5128112;27;20580;-82
2021/06/03 04:06:58;;;;;;;8.05;5.40;;;13.20;64.20;;;13.24;47.62;95525.41;5074323;28;20437;-82
2021/06/03 04:09:27;;;;;;;8.43;5.95;;;13.20;64.40;;;13.39;47.57;95532.38;5089974;28;20242;-81
2021/06/03 04:11:54;;;;;;;6.80;5.97;;;13.30;64.30;;;13.50;47.77;95531.03;5093061;28;20206;-82
2021/06/03 04:14:21;;;;;;;8.48;5.90;;;13.40;64.40;;;13.60;47.36;95523.59;5030246;28;20332;-83
2021/06/03 04:16:48;;;;;;;7.13;5.68;;;13.50;64.30;;;13.72;47.26;95522.03;4917930;28;20213;-83
2021/06/03 04:19:20;;;;;;;6.40;5.80;;;13.60;64.50;;;13.80;47.53;95517.59;4861740;29;20226;-82
2021/06/03 04:21:48;;;;;;;7.45;5.80;;;13.70;64.30;;;13.91;47.63;95528.41;4755671;29;20262;-83
2021/06/03 04:24:26;;;;;;;6.60;5.90;;;13.80;64.40;;;14.04;47.51;95526.81;5133352;27;20338;-81
2021/06/03 04:26:54;;;;;;;5.93;5.32;;;13.80;64.30;;;14.14;47.57;95521.16;5060089;28;20259;-81
2021/06/03 04:29:20;;;;;;;7.38;5.75;;;14.00;64.60;;;14.21;47.38;95524.63;5052765;28;20311;-82
2021/06/03 04:31:47;;;;;;;6.13;5.07;;;14.10;64.30;;;14.29;46.90;95527.06;5031657;28;20265;-81
2021/06/03 04:34:14;;;;;;;7.00;5.72;;;14.20;64.40;;;14.33;47.55;95533.59;4988605;28;20246;-83
2021/06/03 04:36:41;;;;;;;6.20;5.53;;;14.20;64.20;;;14.41;47.36;95537.84;4868796;29;20300;-82
2021/06/03 04:39:08;;;;;;;6.85;5.82;;;14.30;64.20;;;14.49;47.26;95540.31;4838013;29;20287;-81
2021/06/03 04:41:35;;;;;;;7.43;6.10;;;14.40;64.20;;;14.52;47.31;95539.91;4672117;30;20843;-82
2021/06/03 04:44:08;;;;;;;8.02;6.05;;;14.40;64.10;;;14.57;47.22;95544.56;5119636;27;20401;-81
2021/06/03 04:46:37;;;;;;;7.00;5.93;;;14.60;64.20;;;14.62;47.46;95539.50;5110482;27;20205;-82
2021/06/03 04:49:03;;;;;;;8.25;6.35;;;14.50;64.20;;;14.68;47.61;95543.19;5090284;28;20701;-82
2021/06/03 04:51:31;;;;;;;6.07;5.47;;;14.60;64.10;;;14.72;47.35;95542.59;5048324;28;20205;-82
2021/06/03 04:53:58;;;;;;;7.20;5.72;;;14.60;64.00;;;14.76;47.53;95542.19;5003260;28;20216;-81
2021/06/03 04:56:24;;;;;;;6.30;5.70;;;14.70;64.00;;;14.82;47.56;95541.41;4951943;28;20215;-79
2021/06/03 04:58:50;;;;;;;8.73;6.00;;;14.80;64.20;;;14.88;47.24;95544.03;4865267;29;20688;-80
2021/06/03 05:01:17;;;;;;;7.65;5.35;;;14.80;64.10;;;14.92;47.27;95544.44;4809754;29;20222;-81
2021/06/03 05:06:20;;;;;;;10.70;6.40;;;14.90;64.10;;;15.01;47.38;95540.59;5150208;27;20637;-80
2021/06/03 05:08:46;;;;;;;7.22;6.05;;;14.90;64.20;;;15.04;47.55;95545.44;5106228;28;20225;-80
2021/06/03 05:11:13;;;;;;;9.13;5.65;;;15.00;64.10;;;15.10;47.41;95553.56;5102193;28;20237;-81
2021/06/03 05:13:41;;;;;;;14.95;7.35;;;15.10;64.20;;;15.15;47.07;95559.06;5077468;28;20760;-81
2021/06/03 05:16:08;;;;;;;6.85;5.93;;;15.10;64.10;;;15.19;47.32;95558.44;5044767;28;20202;-80
2021/06/03 05:18:35;;;;;;;7.95;5.53;;;15.10;64.20;;;15.21;47.31;95561.69;4957738;28;20605;-82
2021/06/03 05:21:02;;;;;;;7.15;5.88;;;15.20;64.10;;;15.27;47.17;95567.19;4917622;28;20284;-83
2021/06/03 05:23:29;;;;;;;7.20;5.93;;;15.30;64.20;;;15.32;47.51;95572.69;4774867;29;20336;-83
2021/06/03 05:27:47;;;;;;;6.40;5.75;;;15.30;64.30;;;15.34;47.22;95568.81;5147867;27;20615;-83
2021/06/03 05:30:17;;;;;;;7.90;5.75;;;15.30;64.20;;;15.42;47.10;95569.63;5098349;28;20233;-83
2021/06/03 05:32:46;;;;;;;7.20;6.32;;;15.40;64.20;;;15.49;47.37;95573.03;5073834;28;20255;-82
2021/06/03 05:35:17;;;;;;;8.88;5.70;;;15.40;64.20;;;15.56;47.28;95575.69;5067614;28;20521;-83
2021/06/03 05:37:45;;;;;;;7.57;6.07;;;15.50;64.20;;;15.62;47.25;95572.22;5000125;28;20219;-83
2021/06/03 05:40:16;;;;;;;7.32;6.28;;;15.50;64.30;;;15.69;47.41;95567.72;4928202;28;20276;-82
2021/06/03 05:42:42;;;;;;;6.95;5.80;;;15.60;64.30;;;15.77;47.37;95572.78;4838989;29;20576;-83
2021/06/03 05:47:59;;;;;;;7.43;5.72;;;15.70;64.30;;;15.96;47.15;95578.25;5146920;27;20659;-83
2021/06/03 05:50:28;;;;;;;6.15;5.40;;;15.80;64.40;;;16.06;47.21;95581.25;5045734;28;20223;-82
2021/06/03 05:52:55;;;;;;;8.77;5.60;;;15.90;64.60;;;16.09;47.01;95572.91;5055382;28;20238;-83
2021/06/03 05:55:24;;;;;;;7.07;5.70;;;15.90;64.60;;;16.22;47.27;95574.69;5025276;28;20209;-83
2021/06/03 05:57:51;;;;;;;8.45;5.53;;;16.00;64.50;;;16.28;47.05;95576.50;4968388;28;20283;-82
2021/06/03 06:00:25;;;;;;;7.72;5.35;;;16.10;65.50;;;16.41;47.20;95582.75;4906235;28;20214;-85
2021/06/03 06:02:57;;;;;;;6.13;5.00;;;16.20;64.70;;;16.50;47.22;95584.09;4902708;28;20252;-81
2021/06/03 06:08:04;;;;;;;7.00;5.75;;;16.30;64.60;;;16.77;47.23;95590.06;5142674;27;20571;-82
2021/06/03 06:10:32;;;;;;;6.68;5.55;;;16.50;64.70;;;16.90;47.08;95604.25;5078533;28;20283;-82
2021/06/03 06:13:00;;;;;;;7.07;5.20;;;16.60;64.60;;;16.99;47.04;95592.41;5063231;28;20683;-82
2021/06/03 06:15:28;;;;;;;6.38;5.68;;;16.70;64.50;;;17.10;47.00;95591.69;5026476;28;20218;-83
2021/06/03 06:17:55;;;;;;;6.93;5.00;;;16.80;64.40;;;17.22;46.62;95596.28;5008727;28;20293;-83
2021/06/03 06:20:23;;;;;;;6.35;4.43;;;16.90;64.30;;;17.34;46.45;95599.06;4973912;28;20218;-83
2021/06/03 06:22:51;;;;;;;5.22;4.63;;;17.00;64.30;;;17.45;46.80;95606.28;4936754;28;20262;-82
2021/06/03 06:25:19;;;;;;;8.75;6.20;;;17.10;64.40;;;17.57;46.35;95604.53;4673755;30;20227;-83
2021/06/03 06:27:58;;;;;;;9.43;6.25;;;17.20;64.20;;;17.68;46.57;95602.22;5145366;27;20319;-82
2021/06/03 06:30:27;;;;;;;6.97;6.25;;;17.40;64.30;;;17.84;46.55;95606.94;5095726;28;20536;-81
2021/06/03 06:32:55;;;;;;;6.30;5.70;;;17.50;64.30;;;17.93;46.32;95600.31;5104936;28;20779;-82
2021/06/03 06:35:22;;;;;;;6.00;5.38;;;17.60;64.20;;;18.05;45.90;95602.25;5058773;28;20235;-82
2021/06/03 06:37:49;;;;;;;6.43;5.50;;;17.60;64.00;;;18.15;45.92;95609.69;4950951;28;20214;-81
2021/06/03 06:40:16;;;;;;;5.60;4.95;;;17.70;63.90;;;18.28;45.86;95611.38;4872790;29;20218;-81
2021/06/03 06:42:43;;;;;;;6.85;5.57;;;17.90;63.90;;;18.38;46.21;95609.00;4770194;29;20279;-80
2021/06/03 06:45:12;;;;;;;5.57;4.82;;;18.00;63.90;;;18.47;46.10;95609.50;4678146;30;20259;-79
2021/06/03 06:50:11;;;;;;;5.57;4.95;;;18.00;63.80;;;18.67;45.53;95606.59;5145972;27;20322;-81
2021/06/03 06:52:37;;;;;;;6.50;5.25;;;18.30;63.60;;;18.79;45.70;95609.31;5111293;28;20197;-80
2021/06/03 06:55:07;;;;;;;5.88;5.05;;;18.40;63.50;;;18.87;45.52;95609.78;5072068;28;20243;-82
2021/06/03 06:57:34;;;;;;;5.43;4.60;;;18.40;63.50;;;18.97;45.37;95619.88;5071338;28;20213;-80
2021/06/03 07:00:12;;;;;;;5.60;5.00;;;18.60;63.40;;;19.09;45.04;95622.59;5045732;28;20216;-81
2021/06/03 07:02:39;;;;;;;5.75;4.57;;;18.60;63.30;;;19.22;45.07;95632.19;4998763;28;20201;-81
2021/06/03 07:05:09;;;;;;;5.85;5.10;;;18.70;63.30;;;19.28;44.98;95623.28;4957417;28;20258;-81
2021/06/03 07:07:36;;;;;;;5.57;4.60;;;18.90;63.10;;;19.37;45.14;95618.44;4771334;29;20240;-81
2021/06/03 07:11:51;;;;;;;6.90;4.68;;;19.00;63.30;;;19.53;45.27;95632.94;5146937;27;20572;-80
2021/06/03 07:14:18;;;;;;;6.85;4.78;;;19.10;62.80;;;19.61;45.01;95634.44;5097906;28;20259;-80
2021/06/03 07:16:44;;;;;;;6.03;4.78;;;19.20;63.40;;;19.71;44.53;95633.88;5087887;28;20661;-82
2021/06/03 07:19:11;;;;;;;5.40;4.88;;;19.20;62.90;;;19.79;44.96;95631.66;5073031;28;20215;-80
2021/06/03 07:21:38;;;;;;;4.95;4.40;;;19.30;63.00;;;19.90;44.21;95631.94;5050354;28;20297;-81
2021/06/03 07:24:06;;;;;;;5.85;4.45;;;19.40;63.00;;;20.02;44.57;95635.38;5001789;28;20248;-81
2021/06/03 07:26:33;;;;;;;5.53;4.75;;;19.50;63.10;;;20.12;44.12;95637.47;4980579;28;20198;-80
2021/06/03 07:29:04;;;;;;;5.45;4.10;;;19.60;63.20;;;20.18;44.45;95633.84;4844891;29;20258;-83
2021/06/03 07:33:18;;;;;;;6.10;4.50;;;19.70;63.20;;;20.35;44.00;95628.59;5142958;27;20546;-83
2021/06/03 07:35:50;;;;;;;4.70;4.00;;;19.90;63.30;;;20.44;43.73;95632.50;5080967;28;20206;-84
2021/06/03 07:38:19;;;;;;;7.88;4.30;;;20.00;62.70;;;20.56;43.44;95629.81;5094350;28;20284;-83
2021/06/03 07:40:45;;;;;;;5.97;4.22;;;20.00;62.80;;;20.68;43.43;95626.28;5039808;28;20213;-82
2021/06/03 07:43:13;;;;;;;6.40;4.15;;;20.20;62.60;;;20.79;43.14;95636.13;4965375;28;20236;-84
2021/06/03 07:45:43;;;;;;;4.88;4.15;;;20.20;62.60;;;20.87;43.16;95633.09;4931213;28;20212;-84
2021/06/03 07:48:11;;;;;;;5.35;4.18;;;20.40;62.50;;;20.96;42.84;95625.50;4846582;29;20267;-83
2021/06/03 07:50:40;;;;;;;5.25;4.15;;;20.40;62.30;;;21.04;42.55;95632.28;4711865;29;20218;-83
2021/06/03 07:53:16;;;;;;;4.40;3.80;;;20.50;62.20;;;21.16;42.55;95634.91;5144167;27;20775;-83
2021/06/03 07:55:43;;;;;;;4.75;4.15;;;20.60;62.90;;;21.25;42.63;95625.44;5081427;28;20641;-83
2021/06/03 07:58:13;;;;;;;6.35;4.35;;;20.80;62.00;;;21.32;42.64;95634.09;5057477;28;20366;-83
2021/06/03 08:00:43;;;;;;;5.85;4.25;;;20.80;61.80;;;21.42;41.97;95634.28;5022336;28;20214;-80
2021/06/03 08:03:11;;;;;;;4.78;3.92;;;20.90;61.90;;;21.48;42.04;95632.47;5024470;28;22239;-79
2021/06/03 08:05:38;;;;;;;4.25;3.85;;;21.00;61.30;;;21.54;42.18;95639.50;5002030;28;20293;-82
2021/06/03 08:08:06;;;;;;;4.82;4.10;;;21.10;61.40;;;21.62;42.20;95638.34;4955418;28;20245;-85
2021/06/03 08:10:39;;;;;;;4.60;4.03;;;21.10;61.30;;;21.66;42.35;95628.78;4789770;29;20227;-81
2021/06/03 08:13:12;;;;;;;4.55;4.13;;;21.20;61.40;;;21.74;41.73;95636.38;5139259;27;20323;-82
2021/06/03 08:15:42;;;;;;;4.10;3.70;;;21.20;61.10;;;21.84;42.14;95634.94;5127662;27;20248;-82
2021/06/03 08:18:12;;;;;;;4.43;3.92;;;21.30;61.40;;;21.95;41.69;95642.03;5130060;27;20214;-83
2021/06/03 08:20:48;;;;;;;4.88;4.03;;;21.40;61.30;;;22.00;41.51;95627.94;5070624;28;20212;-82
2021/06/03 08:23:17;;;;;;;4.45;4.05;;;21.50;61.00;;;22.09;41.19;95631.78;5000481;28;20212;-83
2021/06/03 08:25:46;;;;;;;5.40;4.00;;;21.60;61.00;;;22.18;41.73;95638.31;4952161;28;20233;-83
2021/06/03 08:28:16;;;;;;;4.68;3.97;;;21.60;61.10;;;22.26;41.69;95644.31;4825378;29;20234;-83
2021/06/03 08:31:08;;;;;;;6.63;3.92;;;21.70;61.10;;;22.34;41.54;95644.66;5150799;27;20630;-84
2021/06/03 08:33:35;;;;;;;4.82;4.18;;;21.80;61.00;;;22.43;41.23;95639.72;5084510;28;20221;-84
2021/06/03 08:36:03;;;;;;;4.45;3.83;;;21.80;60.90;;;22.48;40.96;95630.97;5070796;28;20650;-84
2021/06/03 08:38:32;;;;;;;4.63;3.80;;;21.90;60.50;;;22.57;40.51;95631.31;5037813;28;20224;-83
2021/06/03 08:41:01;;;;;;;3.72;3.42;;;22.00;60.30;;;22.60;40.21;95628.97;4963658;28;20278;-84
2021/06/03 08:43:34;;;;;;;5.38;4.13;;;22.10;60.50;;;22.64;40.77;95622.06;4882274;29;20242;-81
2021/06/03 08:46:03;;;;;;;4.15;3.75;;;22.10;60.40;;;22.77;40.21;95636.09;4854364;29;20215;-83
2021/06/03 08:51:19;;;;;;;5.35;3.88;;;22.20;60.20;;;22.86;40.63;95624.69;5149865;27;20641;-83
2021/06/03 08:53:49;;;;;;;4.22;3.63;;;22.40;60.40;;;22.95;40.38;95626.91;5093100;28;20230;-83
2021/06/03 08:56:19;;;;;;;3.40;3.10;;;22.40;60.00;;;23.03;39.87;95629.13;5053637;28;20264;-83
2021/06/03 08:58:53;;;;;;;3.97;3.30;;;22.50;59.80;;;23.06;39.58;95636.66;5034666;28;20234;-83
2021/06/03 09:01:21;;;;;;;4.65;3.40;;;22.50;59.20;;;23.11;39.80;95627.88;4994062;28;20196;-83
2021/06/03 09:03:48;;;;;;;5.28;3.80;;;22.60;59.40;;;23.21;39.82;95630.66;4915048;29;20319;-83
2021/06/03 09:06:17;;;;;;;7.38;3.65;;;22.60;59.50;;;23.28;39.30;95623.22;4794457;29;20355;-84
2021/06/03 09:08:52;;;;;;;4.63;2.95;;;22.70;59.30;;;23.39;39.10;95628.66;4707862;29;20597;-82
2021/06/03 09:11:31;;;;;;;4.88;3.20;;;22.80;59.20;;;23.49;39.23;95636.78;5150768;27;20356;-83
2021/06/03 09:14:05;;;;;;;4.20;3.38;;;22.80;59.40;;;23.57;39.24;95630.13;5106169;28;20691;-84
2021/06/03 09:16:35;;;;;;;6.57;3.75;;;22.90;58.70;;;23.62;38.77;95622.97;5072262;28;20264;-83
2021/06/03 09:19:10;;;;;;;4.13;3.50;;;23.00;58.80;;;23.76;39.04;95630.56;5043527;28;20243;-81
2021/06/03 09:21:53;;;;;;;4.70;3.88;;;23.10;59.20;;;23.85;38.70;95628.19;5006187;28;20558;-83
2021/06/03 09:24:22;;;;;;;4.35;3.30;;;23.20;58.80;;;23.95;38.58;95617.59;4968219;28;20295;-83
2021/06/03 09:26:53;;;;;;;3.40;3.10;;;23.30;58.50;;;24.04;38.50;95628.59;4940554;28;20697;-85
2021/06/03 09:31:42;;;;;;;4.35;3.13;;;23.30;58.70;;;24.23;38.40;95627.09;5150684;27;20643;-83
2021/06/03 09:34:14;;;;;;;3.45;3.15;;;23.50;59.90;;;24.30;38.46;95629.53;5097222;28;20221;-84
2021/06/03 09:36:55;;;;;;;3.25;2.95;;;23.60;58.00;;;24.38;38.07;95629.03;5061509;28;20209;-83
2021/06/03 09:39:33;;;;;;;3.70;3.28;;;23.70;57.40;;;24.40;37.67;95610.00;5024692;28;20224;-83
2021/06/03 09:42:08;;;;;;;3.83;3.05;;;23.80;57.60;;;24.50;37.69;95631.50;5022558;28;20212;-83
2021/06/03 09:44:45;;;;;;;4.68;3.25;;;23.80;57.70;;;24.51;37.51;95625.06;4961404;28;20240;-83
2021/06/03 09:47:37;;;;;;;3.47;3.17;;;23.90;56.90;;;24.54;37.07;95624.53;4781376;29;20223;-83
2021/06/03 09:52:18;;;;;;;5.07;2.70;;;23.90;56.50;;;24.58;37.25;95606.03;5139741;27;20645;-83
2021/06/03 09:54:53;;;;;;;3.75;2.83;;;24.10;58.10;;;24.67;36.93;95615.22;5079594;28;20275;-84
2021/06/03 09:57:20;;;;;;;3.35;3.03;;;24.10;56.80;;;24.75;36.81;95622.72;5081555;28;20204;-84
2021/06/03 09:59:58;;;;;;;3.28;2.95;;;24.10;56.40;;;24.79;36.85;95612.28;5088946;28;20315;-83
2021/06/03 10:02:25;;;;;;;3.47;2.67;;;24.20;56.40;;;24.84;36.64;95612.31;5072488;28;20226;-84
2021/06/03 10:04:54;;;;;;;3.03;2.70;;;24.20;56.20;;;24.88;36.19;95607.22;4973476;28;20259;-83
2021/06/03 10:07:30;;;;;;;4.78;3.15;;;24.30;56.10;;;24.96;35.91;95608.56;4836922;29;20224;-84
2021/06/03 10:12:24;;;;;;;3.13;2.83;;;24.40;55.70;;;25.07;36.23;95605.63;5127884;27;20320;-83
2021/06/03 10:14:57;;;;;;;3.80;2.80;;;24.50;56.00;;;25.15;36.34;95614.25;5073304;28;20236;-83
2021/06/03 10:17:32;;;;;;;3.47;2.88;;;24.50;56.10;;;25.23;36.63;95611.00;5066573;28;20260;-83
2021/06/03 10:20:08;;;;;;;3.47;3.00;;;24.60;55.80;;;25.29;36.13;95603.75;5006977;28;20205;-84
2021/06/03 10:22:40;;;;;;;3.45;3.15;;;24.60;55.90;;;25.37;35.82;95608.59;4962668;28;20670;-83
2021/06/03 10:25:13;;;;;;;3.70;3.10;;;24.60;55.50;;;25.40;36.00;95603.53;4955891;28;20213;-83
2021/06/03 10:27:52;;;;;;;5.13;2.95;;;24.70;55.60;;;25.44;35.49;95601.13;4843421;28;20217;-83
2021/06/03 10:32:33;;;;;;;2.90;2.60;;;24.80;54.80;;;25.52;35.88;95605.94;5143349;27;20581;-83
2021/06/03 10:35:05;;;;;;;3.20;2.90;;;24.90;55.30;;;25.57;35.15;95602.44;5069995;28;20683;-83
2021/06/03 10:37:32;;;;;;;3.63;2.95;;;25.00;54.80;;;25.63;35.05;95589.81;5078385;28;20210;-83
2021/06/03 10:40:01;;;;;;;4.72;3.22;;;25.00;54.20;;;25.67;34.65;95598.91;5068335;28;20248;-84
2021/06/03 10:42:27;;;;;;;3.05;2.75;;;25.00;54.30;;;25.69;34.51;95599.47;5041282;28;20215;-84
2021/06/03 10:44:54;;;;;;;5.22;2.80;;;25.10;54.30;;;25.75;34.63;95595.69;4990791;28;20225;-84
2021/06/03 10:47:21;;;;;;;2.80;2.60;;;25.10;54.00;;;25.81;34.78;95599.97;4974041;28;20235;-83
2021/06/03 10:50:05;;;;;;;3.22;2.67;;;25.20;54.00;;;25.93;34.46;95601.56;5147588;27;20555;-84
2021/06/03 10:52:33;;;;;;;3.40;3.10;;;25.20;53.50;;;25.99;34.62;95608.56;5074615;28;20212;-84
2021/06/03 10:55:01;;;;;;;3.88;3.03;;;25.30;53.70;;;26.05;34.09;95597.50;5072522;28;20208;-83
2021/06/03 10:58:08;;;;;;;3.00;2.70;;;25.40;53.20;;;26.07;33.87;95599.16;5040534;28;20552;-83
2021/06/03 11:00:47;;;;;;;4.68;2.80;;;25.40;53.20;;;26.12;33.99;95593.75;4969190;28;20210;-83
2021/06/03 11:03:26;;;;;;;3.28;2.80;;;25.40;53.00;;;26.16;33.78;95600.19;4790875;29;20310;-83
2021/06/03 11:06:03;;;;;;;2.80;2.60;;;25.50;52.70;;;26.22;33.42;95593.72;4738448;30;20231;-84
2021/06/03 11:10:31;;;;;;;2.80;2.60;;;25.60;52.10;;;26.31;33.67;95596.63;5144579;27;21110;-83
2021/06/03 11:13:18;;;;;;;3.17;2.88;;;25.70;52.70;;;26.35;33.23;95606.56;5063568;28;20239;-83
2021/06/03 11:16:09;;;;;;;2.60;2.40;;;25.70;52.60;;;26.37;33.52;95600.91;5003535;28;20444;-83
2021/06/03 11:18:45;;;;;;;3.75;2.70;;;25.80;52.70;;;26.42;32.96;95598.19;4974974;28;20322;-84
2021/06/03 11:21:38;;;;;;;3.05;2.75;;;25.80;51.90;;;26.46;33.27;95601.16;4930209;28;20362;-82